createdAt,value
2023-02-26T00:02:02.234Z,3.23
2023-02-26T00:07:06.617Z,3.35
2023-02-26T00:12:11.851Z,3.43
2023-02-26T00:17:31.769Z,3.45
2023-02-26T00:22:37.207Z,3.36
2023-02-26T00:27:40.729Z,3.29
2023-02-26T00:32:44.724Z,3.07
2023-02-26T00:38:07.268Z,3.00
2023-02-26T00:43:11.698Z,2.96
2023-02-26T00:48:23.940Z,2.80
2023-02-26T00:53:33.236Z,2.67
2023-02-26T00:58:35.992Z,2.57
2023-02-26T01:03:40.021Z,2.45
2023-02-26T01:08:49.378Z,2.43
2023-02-26T01:13:52.613Z,2.35
2023-02-26T01:18:57.751Z,2.31
2023-02-26T01:24:03.780Z,2.30
2023-02-26T01:29:07.148Z,2.22
2023-02-26T01:34:12.950Z,2.19
2023-02-26T01:39:21.780Z,2.15
2023-02-26T01:44:28.093Z,2.07
2023-02-26T01:49:31.829Z,2.00
2023-02-26T01:54:37.275Z,1.87
2023-02-26T01:59:43.844Z,1.86
2023-02-26T02:04:47.352Z,1.86
2023-02-26T02:09:51.514Z,1.78
2023-02-26T02:15:03.689Z,1.76
2023-02-26T02:20:23.596Z,1.66
2023-02-26T02:25:49.948Z,1.55
2023-02-26T02:31:07.520Z,1.44
2023-02-26T02:36:14.939Z,1.37
2023-02-26T02:41:21.388Z,1.31
2023-02-26T02:46:28.770Z,1.26
2023-02-26T02:51:34.726Z,1.29
2023-02-26T02:56:42.064Z,1.27
2023-02-26T03:01:47.049Z,1.19
2023-02-26T03:06:50.160Z,1.13
2023-02-26T03:11:54.620Z,1.06
2023-02-26T03:17:21.207Z,0.96
2023-02-26T03:22:30.917Z,0.93
2023-02-26T03:27:40.258Z,0.90
2023-02-26T03:32:51.361Z,0.82
2023-02-26T03:38:00.430Z,0.77
2023-02-26T03:43:07.688Z,0.76
2023-02-26T03:48:14.942Z,0.77
2023-02-26T03:53:20.764Z,0.78
2023-02-26T03:58:27.100Z,0.79
2023-02-26T04:03:53.411Z,0.80
2023-02-26T04:08:56.816Z,0.76
2023-02-26T04:13:59.725Z,0.73
2023-02-26T04:19:04.824Z,0.73
2023-02-26T04:24:07.964Z,0.74
2023-02-26T04:29:13.082Z,0.71
2023-02-26T04:34:17.325Z,0.68
2023-02-26T04:39:20.497Z,0.63
2023-02-26T04:44:23.957Z,0.62
2023-02-26T04:49:28.292Z,0.61
2023-02-26T04:54:31.856Z,0.61
2023-02-26T04:59:34.938Z,0.56
2023-02-26T05:04:39.439Z,0.54
2023-02-26T05:09:42.302Z,0.48
2023-02-26T05:14:45.174Z,0.51
2023-02-26T05:19:49.384Z,0.53
2023-02-26T05:24:52.214Z,0.56
2023-02-26T05:29:55.128Z,0.57
2023-02-26T05:35:00.038Z,0.53
2023-02-26T05:40:02.956Z,0.59
2023-02-26T05:45:07.302Z,0.66
2023-02-26T05:50:13.168Z,0.71
2023-02-26T05:55:17.015Z,0.73
2023-02-26T06:00:20.574Z,0.76
2023-02-26T06:05:24.917Z,0.79
2023-02-26T06:10:28.254Z,0.80
2023-02-26T06:15:31.137Z,0.79
2023-02-26T06:20:35.554Z,0.77
2023-02-26T06:25:38.464Z,0.77
2023-02-26T06:30:41.668Z,0.75
2023-02-26T06:35:45.948Z,0.73
2023-02-26T06:40:49.387Z,0.69
2023-02-26T06:45:52.312Z,0.74
2023-02-26T06:50:56.602Z,0.76
2023-02-26T06:55:59.572Z,0.79
2023-02-26T07:01:04.550Z,0.89
2023-02-26T07:06:26.022Z,0.98
2023-02-26T07:11:29.678Z,1.24
2023-02-26T07:16:32.735Z,1.47
2023-02-26T07:21:36.970Z,1.71
2023-02-26T07:26:40.262Z,1.85
2023-02-26T07:31:43.567Z,2.04
2023-02-26T07:36:47.906Z,2.10
2023-02-26T07:41:50.759Z,2.22
2023-02-26T07:46:53.623Z,2.31
2023-02-26T07:51:58.090Z,2.48
2023-02-26T07:57:00.987Z,2.55
2023-02-26T08:02:03.924Z,2.71
2023-02-26T08:07:08.475Z,2.90
2023-02-26T08:12:11.477Z,2.95
2023-02-26T08:17:14.649Z,3.02
2023-02-26T08:22:19.192Z,3.15
2023-02-26T08:27:22.111Z,3.33
2023-02-26T08:32:27.051Z,3.44
2023-02-26T08:37:31.455Z,3.52
2023-02-26T08:42:34.321Z,3.61
2023-02-26T08:47:42.315Z,3.70
2023-02-26T08:52:53.221Z,3.77
2023-02-26T08:57:56.138Z,3.81
2023-02-26T09:02:59.094Z,4.02
2023-02-26T09:08:03.480Z,4.18
2023-02-26T09:13:06.413Z,4.19
2023-02-26T09:18:15.293Z,4.17
2023-02-26T09:23:19.761Z,3.87
2023-02-26T09:28:23.457Z,3.84
2023-02-26T09:33:26.715Z,3.87
2023-02-26T09:38:31.235Z,4.12
2023-02-26T09:43:48.312Z,4.22
2023-02-26T09:48:52.136Z,4.10
2023-02-26T09:53:59.538Z,4.37
2023-02-26T09:59:02.549Z,4.42
2023-02-26T10:04:12.021Z,4.71
2023-02-26T10:09:42.898Z,4.89
2023-02-26T10:14:52.264Z,5.01
2023-02-26T10:19:57.983Z,5.10
2023-02-26T10:25:05.157Z,5.34
2023-02-26T10:30:11.605Z,5.47
2023-02-26T10:35:16.929Z,5.49
2023-02-26T10:40:27.860Z,5.53
2023-02-26T10:45:41.172Z,5.72
2023-02-26T10:50:49.469Z,5.75
2023-02-26T10:56:01.744Z,5.84
2023-02-26T11:01:09.359Z,5.83
2023-02-26T11:06:25.665Z,5.93
2023-02-26T11:11:44.272Z,6.33
2023-02-26T11:16:49.909Z,6.37
2023-02-26T11:21:54.979Z,6.25
2023-02-26T11:27:03.778Z,6.45
2023-02-26T11:32:07.667Z,6.64
2023-02-26T11:37:10.887Z,6.61
2023-02-26T11:42:16.281Z,6.75
2023-02-26T11:47:22.026Z,7.02
2023-02-26T11:52:30.060Z,6.76
2023-02-26T11:57:34.800Z,6.83
2023-02-26T12:02:41.453Z,6.86
2023-02-26T12:07:46.820Z,7.21
2023-02-26T12:13:03.138Z,7.27
2023-02-26T12:18:20.632Z,7.22
2023-02-26T12:23:51.491Z,7.37
2023-02-26T12:29:25.262Z,7.80
2023-02-26T12:34:39.621Z,7.68
2023-02-26T12:39:51.441Z,7.71
2023-02-26T12:45:08.827Z,8.05
2023-02-26T12:50:35.476Z,7.93
2023-02-26T12:55:46.472Z,7.52
2023-02-26T13:01:15.201Z,7.73
2023-02-26T13:06:52.108Z,7.68
2023-02-26T13:12:05.239Z,7.89
2023-02-26T13:17:14.767Z,7.89
2023-02-26T13:22:21.375Z,8.25
2023-02-26T13:27:27.338Z,8.37
2023-02-26T13:32:33.428Z,8.65
2023-02-26T13:37:40.582Z,8.37
2023-02-26T13:42:48.228Z,8.27
2023-02-26T13:48:02.548Z,8.51
2023-02-26T13:53:24.661Z,8.13
2023-02-26T13:58:36.289Z,8.04
2023-02-26T14:03:48.337Z,8.48
2023-02-26T14:08:53.778Z,8.17
2023-02-26T14:14:20.318Z,8.16
2023-02-26T14:19:34.840Z,7.88
2023-02-26T14:24:38.924Z,7.76
2023-02-26T14:29:44.037Z,7.94
2023-02-26T14:34:52.057Z,8.20
2023-02-26T14:39:57.550Z,7.83
2023-02-26T14:45:10.874Z,8.10
2023-02-26T14:50:17.262Z,8.50
2023-02-26T14:55:31.448Z,8.85
2023-02-26T15:00:40.098Z,8.67
2023-02-26T15:05:56.109Z,8.33
2023-02-26T15:11:20.707Z,8.12
2023-02-26T15:16:33.133Z,8.03
2023-02-26T15:21:44.031Z,8.05
2023-02-26T15:26:48.734Z,7.89
2023-02-26T15:31:55.081Z,7.88
2023-02-26T15:37:00.597Z,7.67
2023-02-26T15:42:05.202Z,7.32
2023-02-26T15:47:09.345Z,7.33
2023-02-26T15:52:15.514Z,7.31
2023-02-26T15:57:19.299Z,7.19
2023-02-26T16:02:23.921Z,7.10
2023-02-26T16:07:28.212Z,6.87
2023-02-26T16:12:36.360Z,6.78
2023-02-26T16:17:41.904Z,6.66
2023-02-26T16:22:50.306Z,6.52
2023-02-26T16:27:58.677Z,6.36
2023-02-26T16:33:04.265Z,6.22
2023-02-26T16:38:14.056Z,6.06
2023-02-26T16:43:36.622Z,5.84
2023-02-26T16:48:44.941Z,5.67
2023-02-26T16:53:53.722Z,5.51
2023-02-26T16:59:02.746Z,5.30
2023-02-26T17:04:06.950Z,5.13
2023-02-26T17:09:35.221Z,4.98
2023-02-26T17:14:40.581Z,4.84
2023-02-26T17:19:43.482Z,4.66
2023-02-26T17:24:49.418Z,4.43
2023-02-26T17:29:52.516Z,4.32
2023-02-26T17:34:55.871Z,4.16
2023-02-26T17:40:00.623Z,4.03
2023-02-26T17:45:26.923Z,3.90
2023-02-26T17:50:44.402Z,3.76
2023-02-26T17:55:50.340Z,3.65
2023-02-26T18:00:54.044Z,3.53
2023-02-26T18:05:57.329Z,3.43
2023-02-26T18:11:03.144Z,3.39
2023-02-26T18:16:07.278Z,3.31
2023-02-26T18:21:12.112Z,3.25
2023-02-26T18:26:18.571Z,3.18
2023-02-26T18:31:21.570Z,3.14
2023-02-26T18:36:29.798Z,3.15
2023-02-26T18:41:35.126Z,3.23
2023-02-26T18:46:40.238Z,3.30
2023-02-26T18:51:43.096Z,3.33
2023-02-26T18:56:47.900Z,3.36
2023-02-26T19:01:50.843Z,3.33
2023-02-26T19:06:53.808Z,3.21
2023-02-26T19:11:58.768Z,3.14
2023-02-26T19:17:01.661Z,3.14
2023-02-26T19:22:04.553Z,3.09
2023-02-26T19:27:09.069Z,3.04
2023-02-26T19:32:12.088Z,3.04
2023-02-26T19:37:15.016Z,3.13
2023-02-26T19:42:19.449Z,3.21
2023-02-26T19:47:22.274Z,3.30
2023-02-26T19:52:25.064Z,3.39
2023-02-26T19:57:29.643Z,3.47
2023-02-26T20:02:32.861Z,3.54
2023-02-26T20:07:36.231Z,3.57
2023-02-26T20:12:40.491Z,3.64
2023-02-26T20:17:43.386Z,3.67
2023-02-26T20:22:46.159Z,3.69
2023-02-26T20:27:50.780Z,3.70
2023-02-26T20:32:53.920Z,3.67
2023-02-26T20:37:56.963Z,3.76
2023-02-26T20:43:01.174Z,3.82
2023-02-26T20:48:04.272Z,3.87
2023-02-26T20:53:08.704Z,3.89
2023-02-26T20:58:12.992Z,3.92
2023-02-26T21:03:15.902Z,3.90
2023-02-26T21:08:18.937Z,3.91
2023-02-26T21:13:23.184Z,3.92
2023-02-26T21:18:26.071Z,3.95
2023-02-26T21:23:28.847Z,3.94
2023-02-26T21:28:33.112Z,3.92
2023-02-26T21:33:35.902Z,3.95
2023-02-26T21:38:38.864Z,3.94
2023-02-26T21:43:43.494Z,3.93
2023-02-26T21:48:48.828Z,3.95
2023-02-26T21:53:51.606Z,3.94
2023-02-26T21:58:55.914Z,3.95
2023-02-26T22:03:58.747Z,3.98
2023-02-26T22:09:01.551Z,3.96
2023-02-26T22:14:05.761Z,3.98
2023-02-26T22:19:08.656Z,3.84
2023-02-26T22:24:11.614Z,3.96
2023-02-26T22:29:17.227Z,3.96
2023-02-26T22:34:22.067Z,3.95
2023-02-26T22:39:24.998Z,3.95
2023-02-26T22:44:29.471Z,3.88
2023-02-26T22:49:32.313Z,3.80
2023-02-26T22:54:35.841Z,3.71
2023-02-26T22:59:40.145Z,3.62
2023-02-26T23:04:43.028Z,3.56
2023-02-26T23:09:45.922Z,3.46
2023-02-26T23:14:50.300Z,3.39
2023-02-26T23:19:53.354Z,3.27
2023-02-26T23:24:56.311Z,3.09
2023-02-26T23:30:00.530Z,2.93
2023-02-26T23:35:03.463Z,2.90
2023-02-26T23:40:08.404Z,2.86
2023-02-26T23:45:13.570Z,2.83
2023-02-26T23:50:16.437Z,2.80
2023-02-26T23:55:19.889Z,2.77
